Time;durP1;ratioP1;P1;durP2;ratioP2;P2;SDS_P1;SDS_P2;PMS_P1;PMS_P2;Temp;Humidity;BMP_temperature;BMP_pressure;BME280_temperature;BME280_humidity;BME280_pressure;Samples;Min_cycle;Max_cycle;Signal;HPM_P1;HPM_P2
2022/10/25 00:01:50;;;;;;;7.90;3.85;;;;;;;;;;6309120;22;20050;-94
2022/10/25 00:04:19;;;;;;;7.53;4.10;;;;;;;;;;6309164;22;20007;-93
2022/10/25 00:06:51;;;;;;;7.40;3.67;;;;;;;;;;6308742;22;20089;-93
2022/10/25 00:09:24;;;;;;;7.40;3.97;;;;;;;;;;6315530;22;20086;-93
2022/10/25 00:11:53;;;;;;;12.55;3.85;;;;;;;;;;6313289;22;20062;-95
2022/10/25 00:14:29;;;;;;;;;;;;;;;;;;;;;
2022/10/25 00:17:02;;;;;;;7.18;3.60;;;;;;;;;;6309967;22;20082;-94
2022/10/25 00:19:34;;;;;;;6.45;3.28;;;;;;;;;;6309073;22;20050;-94
2022/10/25 00:22:09;;;;;;;5.15;2.95;;;;;;;;;;6309322;22;20011;-95
2022/10/25 00:25:02;;;;;;;5.32;3.10;;;;;;;;;;6304554;22;19999;-95
2022/10/25 00:27:34;;;;;;;7.38;3.25;;;;;;;;;;6317061;22;20003;-94
2022/10/25 00:30:09;;;;;;;6.15;2.70;;;;;;;;;;6309528;22;20003;-95
2022/10/25 00:32:36;;;;;;;8.32;2.63;;;;;;;;;;6308472;22;20065;-93
2022/10/25 00:35:05;;;;;;;7.95;2.55;;;;;;;;;;6308468;22;20007;-93
2022/10/25 00:37:31;;;;;;;4.75;2.40;;;;;;;;;;6307790;22;20018;-94
2022/10/25 00:39:57;;;;;;;5.15;2.33;;;;;;;;;;6310117;22;20323;-93
2022/10/25 00:42:27;;;;;;;5.40;2.80;;;;;;;;;;6310245;22;20015;-93
2022/10/25 00:48:15;;;;;;;5.40;2.72;;;;;;;;;;6311893;22;20496;-95
2022/10/25 00:50:41;;;;;;;4.97;2.10;;;;;;;;;;6329643;22;19999;-96
2022/10/25 00:53:25;;;;;;;3.95;2.10;;;;;;;;;;6321046;22;20011;-96
2022/10/25 00:56:23;;;;;;;4.22;2.65;;;;;;;;;;6316818;22;20085;-96
2022/10/25 01:01:47;;;;;;;4.32;2.33;;;;;;;;;;6177304;23;20131;-95
2022/10/25 01:04:18;;;;;;;5.40;2.55;;;;;;;;;;6192599;23;20018;-94
2022/10/25 01:10:02;;;;;;;4.00;2.25;;;;;;;;;;6224049;23;20020;-95
2022/10/25 01:12:28;;;;;;;5.63;2.70;;;;;;;;;;6192471;23;20017;-96
2022/10/25 01:15:00;;;;;;;7.53;2.92;;;;;;;;;;6192443;23;20394;-95
2022/10/25 01:17:44;;;;;;;5.43;2.42;;;;;;;;;;6192658;23;20476;-96
2022/10/25 01:20:45;;;;;;;5.32;2.70;;;;;;;;;;6193794;23;20465;-95
2022/10/25 01:26:48;;;;;;;5.88;2.10;;;;;;;;;;6136445;23;20070;-96
2022/10/25 01:29:32;;;;;;;4.55;2.10;;;;;;;;;;6209148;22;20006;-96
2022/10/25 01:32:09;;;;;;;3.85;2.38;;;;;;;;;;6277165;22;20007;-95
2022/10/25 01:34:46;;;;;;;6.28;2.50;;;;;;;;;;6319759;22;20023;-95
2022/10/25 01:37:44;;;;;;;;;;;;;;;;;;;;;
2022/10/25 01:40:36;;;;;;;5.22;2.72;;;;;;;;;;6313105;22;20086;-94
2022/10/25 01:43:22;;;;;;;4.82;2.42;;;;;;;;;;6192270;23;20013;-94
2022/10/25 01:46:07;;;;;;;6.03;2.15;;;;;;;;;;6191966;23;20088;-95
2022/10/25 01:48:56;;;;;;;6.90;2.22;;;;;;;;;;6192760;23;20005;-96
2022/10/25 01:52:03;;;;;;;4.95;2.53;;;;;;;;;;6206350;23;20028;-93
2022/10/25 01:54:29;;;;;;;12.25;5.00;;;;;;;;;;6220597;23;20020;-94
2022/10/25 01:56:56;;;;;;;38.35;13.07;;;;;;;;;;6204236;23;20031;-96
2022/10/25 01:59:32;;;;;;;17.52;7.22;;;;;;;;;;6203757;23;20008;-95
2022/10/25 02:02:01;;;;;;;18.65;6.68;;;;;;;;;;6310943;22;20012;-95
2022/10/25 02:04:33;;;;;;;17.58;6.53;;;;;;;;;;6310243;22;19999;-94
2022/10/25 02:07:28;;;;;;;17.15;7.47;;;;;;;;;;6310200;22;20052;-95
2022/10/25 02:13:02;;;;;;;15.13;6.30;;;;;;;;;;6311435;22;20052;-93
2022/10/25 02:15:46;;;;;;;14.32;6.10;;;;;;;;;;6310583;22;20385;-94
2022/10/25 02:18:38;;;;;;;13.88;5.18;;;;;;;;;;6311840;22;20086;-94
2022/10/25 02:21:10;;;;;;;7.03;3.45;;;;;;;;;;6273991;22;20011;-95
2022/10/25 02:23:39;;;;;;;8.15;3.90;;;;;;;;;;6321930;22;20011;-93
2022/10/25 02:26:12;;;;;;;9.48;4.15;;;;;;;;;;6316321;22;20058;-95
2022/10/25 02:28:42;;;;;;;8.02;3.20;;;;;;;;;;6311462;22;20086;-96
2022/10/25 02:31:24;;;;;;;8.73;3.40;;;;;;;;;;6310306;22;20007;-95
2022/10/25 02:33:54;;;;;;;6.35;2.00;;;;;;;;;;6309926;22;20019;-95
2022/10/25 02:36:27;;;;;;;4.88;1.77;;;;;;;;;;6310097;22;20442;-93
2022/10/25 02:39:01;;;;;;;3.92;1.70;;;;;;;;;;6310169;22;20011;-95
2022/10/25 02:41:28;;;;;;;3.03;1.13;;;;;;;;;;6310770;22;20011;-94
2022/10/25 02:43:54;;;;;;;4.28;1.50;;;;;;;;;;6313947;22;20010;-94
2022/10/25 02:46:26;;;;;;;3.33;1.45;;;;;;;;;;6309634;22;20007;-95
2022/10/25 02:48:58;;;;;;;2.65;1.50;;;;;;;;;;6307951;22;20022;-95
2022/10/25 02:51:30;;;;;;;3.53;1.30;;;;;;;;;;6315943;22;20014;-94
2022/10/25 02:54:15;;;;;;;2.45;1.38;;;;;;;;;;6331029;22;20011;-96
2022/10/25 03:03:02;;;;;;;3.53;1.48;;;;;;;;;;6309480;22;20455;-96
2022/10/25 03:05:56;;;;;;;2.50;1.30;;;;;;;;;;6310079;22;19999;-96
2022/10/25 03:08:31;;;;;;;4.13;1.80;;;;;;;;;;6277058;22;20012;-95
2022/10/25 03:14:02;;;;;;;3.00;1.52;;;;;;;;;;6263456;22;20009;-94
2022/10/25 03:16:31;;;;;;;2.50;1.23;;;;;;;;;;6222951;23;20075;-93
2022/10/25 03:19:09;;;;;;;5.80;1.40;;;;;;;;;;6219765;23;20441;-94
2022/10/25 03:21:38;;;;;;;3.85;1.98;;;;;;;;;;6219769;23;20071;-94
2022/10/25 03:24:10;;;;;;;3.10;1.40;;;;;;;;;;6220492;23;20004;-95
2022/10/25 03:26:54;;;;;;;4.75;1.58;;;;;;;;;;6220368;23;20004;-95
2022/10/25 03:29:29;;;;;;;3.75;1.58;;;;;;;;;;6251797;22;20008;-95
2022/10/25 03:32:01;;;;;;;3.10;1.48;;;;;;;;;;6254633;22;20138;-95
2022/10/25 03:34:29;;;;;;;4.68;1.77;;;;;;;;;;6268686;22;20023;-95
2022/10/25 03:37:25;;;;;;;5.65;2.20;;;;;;;;;;6257783;22;20501;-96
2022/10/25 03:39:58;;;;;;;5.47;2.42;;;;;;;;;;6293396;22;20033;-95
2022/10/25 03:42:35;;;;;;;8.73;2.83;;;;;;;;;;6311306;22;20037;-95
2022/10/25 03:47:58;;;;;;;5.18;2.58;;;;;;;;;;6312872;22;20014;-94
2022/10/25 03:50:31;;;;;;;4.50;2.78;;;;;;;;;;6294742;22;20007;-95
2022/10/25 03:53:08;;;;;;;4.75;2.45;;;;;;;;;;6310429;22;20003;-96
2022/10/25 03:55:57;;;;;;;;;;;;;;;;;;;;;
2022/10/25 03:58:23;;;;;;;5.78;2.35;;;;;;;;;;6311273;22;20082;-93
2022/10/25 04:00:59;;;;;;;7.93;3.17;;;;;;;;;;6310177;22;20333;-96
2022/10/25 04:03:31;;;;;;;6.95;2.90;;;;;;;;;;6285046;22;20098;-96
2022/10/25 04:06:09;;;;;;;5.30;2.90;;;;;;;;;;6310261;22;20000;-96
2022/10/25 04:08:39;;;;;;;6.22;2.80;;;;;;;;;;6309682;22;19999;-94
2022/10/25 04:11:09;;;;;;;5.88;2.85;;;;;;;;;;6309831;22;20424;-95
2022/10/25 04:13:38;;;;;;;4.97;2.28;;;;;;;;;;6309836;22;20007;-95
2022/10/25 04:16:16;;;;;;;5.60;2.65;;;;;;;;;;6303458;22;20003;-96
2022/10/25 04:18:46;;;;;;;7.28;2.45;;;;;;;;;;6294510;22;20492;-96
2022/10/25 04:21:27;;;;;;;6.32;2.67;;;;;;;;;;6311843;22;20015;-96
2022/10/25 04:23:54;;;;;;;5.22;2.45;;;;;;;;;;6311246;22;20022;-96
2022/10/25 04:26:33;;;;;;;9.25;2.90;;;;;;;;;;6312289;22;20423;-95
2022/10/25 04:29:12;;;;;;;4.50;2.45;;;;;;;;;;6311717;22;20018;-95
2022/10/25 04:31:41;;;;;;;7.55;2.63;;;;;;;;;;6322194;22;20125;-95
2022/10/25 04:34:07;;;;;;;5.38;2.47;;;;;;;;;;6311094;22;19999;-95
2022/10/25 04:36:37;;;;;;;4.93;2.90;;;;;;;;;;6321473;22;20051;-93
2022/10/25 04:39:04;;;;;;;6.18;2.72;;;;;;;;;;6327645;22;20073;-94
2022/10/25 04:41:42;;;;;;;5.47;2.42;;;;;;;;;;6312941;22;20019;-96
2022/10/25 04:44:14;;;;;;;5.65;2.83;;;;;;;;;;6310875;22;20009;-96
2022/10/25 04:46:40;;;;;;;5.20;2.50;;;;;;;;;;6311880;22;20003;-95
2022/10/25 04:49:09;;;;;;;4.78;2.17;;;;;;;;;;6311671;22;19999;-93
2022/10/25 04:51:35;;;;;;;5.07;2.42;;;;;;;;;;6311164;22;20026;-96
2022/10/25 04:54:12;;;;;;;;;;;;;;;;;;;;;
2022/10/25 04:56:38;;;;;;;5.80;2.55;;;;;;;;;;6312431;22;20082;-96
2022/10/25 04:59:11;;;;;;;3.42;1.95;;;;;;;;;;6311589;22;19999;-95
2022/10/25 05:01:43;;;;;;;4.60;2.20;;;;;;;;;;6311353;22;20022;-94
2022/10/25 05:04:17;;;;;;;4.15;2.10;;;;;;;;;;6311661;22;20007;-96
2022/10/25 05:07:10;;;;;;;5.95;2.58;;;;;;;;;;6314422;22;20063;-96
2022/10/25 05:09:42;;;;;;;4.82;2.78;;;;;;;;;;6326986;22;20034;-92
2022/10/25 05:12:34;;;;;;;4.47;2.45;;;;;;;;;;6313702;22;20010;-95
2022/10/25 05:15:07;;;;;;;6.97;2.47;;;;;;;;;;6310657;22;20086;-95
2022/10/25 05:17:33;;;;;;;4.65;2.25;;;;;;;;;;6310502;22;20030;-92
2022/10/25 05:20:36;;;;;;;6.78;2.60;;;;;;;;;;6310056;22;20009;-95
2022/10/25 05:23:03;;;;;;;4.72;1.83;;;;;;;;;;6309737;22;20555;-96
2022/10/25 05:25:29;;;;;;;3.75;1.77;;;;;;;;;;6309543;22;20058;-92
2022/10/25 05:28:01;;;;;;;5.68;2.15;;;;;;;;;;6310353;22;20003;-96
2022/10/25 05:30:33;;;;;;;8.93;1.85;;;;;;;;;;6310707;22;20431;-90
2022/10/25 05:32:59;;;;;;;4.70;2.30;;;;;;;;;;6310323;22;20027;-92
2022/10/25 05:35:25;;;;;;;4.90;1.90;;;;;;;;;;6310699;22;19999;-96
2022/10/25 05:37:57;;;;;;;4.00;1.60;;;;;;;;;;6309011;22;20392;-93
2022/10/25 05:40:41;;;;;;;6.05;1.60;;;;;;;;;;6310576;22;20035;-94
2022/10/25 05:43:07;;;;;;;2.97;1.20;;;;;;;;;;6310523;22;20050;-91
2022/10/25 05:48:40;;;;;;;4.13;1.88;;;;;;;;;;6313982;22;20487;-90
2022/10/25 05:51:10;;;;;;;3.88;1.77;;;;;;;;;;6309588;22;20010;-90
2022/10/25 05:53:52;;;;;;;5.63;1.60;;;;;;;;;;6309654;22;20082;-92
2022/10/25 05:56:32;;;;;;;5.63;1.65;;;;;;;;;;6311500;22;20003;-94
2022/10/25 05:59:16;;;;;;;3.03;1.52;;;;;;;;;;6310894;22;20451;-95
2022/10/25 06:01:54;;;;;;;2.92;0.82;;;;;;;;;;6312221;22;20046;-90
2022/10/25 06:04:20;;;;;;;2.55;0.80;;;;;;;;;;6310590;22;20003;-91
2022/10/25 06:06:46;;;;;;;5.82;0.88;;;;;;;;;;6309091;22;20010;-91
2022/10/25 06:09:23;;;;;;;2.90;0.50;;;;;;;;;;6311680;22;20007;-91
2022/10/25 06:12:18;;;;;;;3.70;0.80;;;;;;;;;;6311418;22;19998;-90
2022/10/25 06:15:19;;;;;;;5.40;1.20;;;;;;;;;;6305973;22;20007;-91
2022/10/25 06:17:57;;;;;;;1.40;0.60;;;;;;;;;;6195209;23;20004;-90
2022/10/25 06:20:23;;;;;;;3.58;1.85;;;;;;;;;;6193362;23;20009;-89
2022/10/25 06:22:51;;;;;;;6.10;1.58;;;;;;;;;;6285724;22;20094;-87
2022/10/25 06:25:17;;;;;;;3.22;1.27;;;;;;;;;;6317584;22;20014;-89
2022/10/25 06:27:44;;;;;;;3.38;1.38;;;;;;;;;;6310990;22;20434;-89
2022/10/25 06:30:10;;;;;;;4.75;1.60;;;;;;;;;;6308981;22;20007;-88
2022/10/25 06:32:37;;;;;;;1.98;1.20;;;;;;;;;;6309243;22;20004;-92
2022/10/25 06:35:03;;;;;;;6.05;3.08;;;;;;;;;;6313473;22;20011;-87
2022/10/25 06:37:35;;;;;;;6.38;2.22;;;;;;;;;;6313904;22;20010;-92
2022/10/25 06:40:01;;;;;;;3.75;1.85;;;;;;;;;;6318368;22;20007;-90
2022/10/25 06:42:38;;;;;;;4.07;2.22;;;;;;;;;;6318397;22;20014;-91
2022/10/25 06:45:05;;;;;;;4.25;2.00;;;;;;;;;;6352291;22;20022;-89
2022/10/25 06:51:10;;;;;;;3.70;1.38;;;;;;;;;;6288034;22;20895;-89
2022/10/25 06:53:39;;;;;;;2.72;1.15;;;;;;;;;;6321445;22;20006;-89
2022/10/25 06:56:37;;;;;;;4.03;1.15;;;;;;;;;;6322119;22;20014;-91
2022/10/25 07:05:59;;;;;;;3.50;1.00;;;;;;;;;;6346678;22;20135;-89
2022/10/25 07:11:19;;;;;;;2.00;0.98;;;;;;;;;;6315226;22;20030;-93
2022/10/25 07:13:51;;;;;;;3.92;1.45;;;;;;;;;;6314974;22;20006;-89
2022/10/25 07:16:45;;;;;;;1.70;0.80;;;;;;;;;;6315898;22;20022;-93
2022/10/25 07:19:11;;;;;;;;;;;;;;;;;;6315313;22;20074;-91
2022/10/25 07:27:58;;;;;;;2.08;1.00;;;;;;;;;;6343366;22;20335;-89
2022/10/25 07:30:24;;;;;;;3.47;1.00;;;;;;;;;;6295539;22;20029;-89
2022/10/25 07:32:50;;;;;;;5.95;0.80;;;;;;;;;;6314971;22;20010;-90
2022/10/25 07:35:26;;;;;;;4.45;0.80;;;;;;;;;;6316938;22;20006;-89
2022/10/25 07:37:52;;;;;;;2.25;0.60;;;;;;;;;;6320920;22;20007;-88
2022/10/25 07:40:18;;;;;;;2.50;0.70;;;;;;;;;;6326730;22;20093;-89
2022/10/25 07:46:00;;;;;;;1.63;0.63;;;;;;;;;;6283734;22;20006;-90
2022/10/25 07:51:24;;;;;;;1.90;0.40;;;;;;;;;;6326333;22;20501;-93
2022/10/25 07:56:47;;;;;;;1.05;0.40;;;;;;;;;;6345598;22;20025;-89
2022/10/25 15:25:39;;;;;;;5.07;1.25;;;;;;;;;;6235754;22;20020;-92
2022/10/25 15:28:13;;;;;;;3.47;2.03;;;;;;;;;;6313376;22;20002;-88
2022/10/25 15:30:49;;;;;;;9.00;1.80;;;;;;;;;;6311678;22;20082;-90
2022/10/25 15:33:16;;;;;;;10.15;2.70;;;;;;;;;;6313830;22;20007;-96
2022/10/25 15:35:54;;;;;;;5.65;2.10;;;;;;;;;;6331595;22;20003;-90
2022/10/25 15:38:21;;;;;;;9.45;2.08;;;;;;;;;;6311738;22;20003;-88
2022/10/25 15:40:51;;;;;;;7.35;2.92;;;;;;;;;;6312575;22;20049;-88
2022/10/25 15:43:17;;;;;;;6.75;2.95;;;;;;;;;;6311354;22;20007;-86
2022/10/25 15:45:43;;;;;;;6.63;2.38;;;;;;;;;;6310781;22;20003;-85
2022/10/25 15:48:14;;;;;;;10.02;3.05;;;;;;;;;;6311076;22;20071;-87
2022/10/25 15:50:45;;;;;;;6.03;2.95;;;;;;;;;;6311333;22;20009;-88
2022/10/25 15:53:11;;;;;;;23.05;6.32;;;;;;;;;;6310687;22;20022;-88
2022/10/25 15:55:37;;;;;;;6.50;2.95;;;;;;;;;;6311350;22;19999;-86
2022/10/25 15:58:04;;;;;;;58.80;12.50;;;;;;;;;;6311415;22;20010;-90
2022/10/25 16:00:31;;;;;;;6.72;2.35;;;;;;;;;;6313456;22;20008;-91
2022/10/25 16:02:57;;;;;;;12.85;2.28;;;;;;;;;;6311115;22;20436;-90
2022/10/25 16:05:34;;;;;;;3.85;1.95;;;;;;;;;;6311708;22;20003;-87
2022/10/25 16:08:00;;;;;;;5.13;2.25;;;;;;;;;;6314553;22;20115;-88
2022/10/25 16:10:32;;;;;;;5.40;2.50;;;;;;;;;;6313237;22;20007;-96
2022/10/25 16:13:01;;;;;;;4.15;2.13;;;;;;;;;;6312514;22;19999;-89
2022/10/25 16:15:28;;;;;;;12.93;2.20;;;;;;;;;;6312170;22;20351;-89
2022/10/25 16:17:54;;;;;;;7.90;2.42;;;;;;;;;;6312419;22;20034;-88
2022/10/25 16:20:22;;;;;;;4.68;2.40;;;;;;;;;;6341622;22;19998;-88
2022/10/25 16:22:48;;;;;;;5.28;2.28;;;;;;;;;;6312465;22;20160;-93
2022/10/25 16:25:15;;;;;;;8.25;2.13;;;;;;;;;;6312818;22;20085;-90
2022/10/25 16:27:42;;;;;;;16.80;3.00;;;;;;;;;;6240315;22;1563227;-90
2022/10/25 16:30:18;;;;;;;6.75;2.70;;;;;;;;;;6283191;22;20450;-88
2022/10/25 16:32:45;;;;;;;6.72;2.78;;;;;;;;;;6283684;22;20003;-89
2022/10/25 16:35:12;;;;;;;7.90;3.60;;;;;;;;;;6283539;22;20003;-89
2022/10/25 16:37:39;;;;;;;7.53;2.63;;;;;;;;;;6283603;22;20003;-90
2022/10/25 16:40:05;;;;;;;11.25;3.20;;;;;;;;;;6283626;22;20053;-89
2022/10/25 16:42:38;;;;;;;5.07;2.03;;;;;;;;;;6283502;22;20019;-89
2022/10/25 16:45:10;;;;;;;5.20;1.80;;;;;;;;;;6283618;22;20010;-89
2022/10/25 16:47:36;;;;;;;6.65;1.90;;;;;;;;;;6283284;22;20014;-89
2022/10/25 16:50:03;;;;;;;7.35;2.60;;;;;;;;;;6282594;22;20023;-89
2022/10/25 16:52:29;;;;;;;6.38;2.47;;;;;;;;;;6284058;22;19999;-89
2022/10/25 16:54:55;;;;;;;5.38;1.98;;;;;;;;;;6283534;22;20437;-89
2022/10/25 16:57:21;;;;;;;8.55;1.75;;;;;;;;;;6283589;22;20010;-89
2022/10/25 16:59:47;;;;;;;5.25;1.95;;;;;;;;;;6283381;22;20014;-89
2022/10/25 17:02:18;;;;;;;7.88;1.85;;;;;;;;;;6283031;22;20011;-88
2022/10/25 17:04:44;;;;;;;6.35;2.10;;;;;;;;;;6283742;22;20030;-88
2022/10/25 17:07:10;;;;;;;6.53;1.52;;;;;;;;;;6283504;22;20003;-86
2022/10/25 17:09:36;;;;;;;11.30;2.50;;;;;;;;;;6283396;22;20057;-89
2022/10/25 17:12:02;;;;;;;7.68;3.38;;;;;;;;;;6283693;22;20003;-89
2022/10/25 17:14:29;;;;;;;9.45;3.42;;;;;;;;;;6283702;22;20010;-89
2022/10/25 17:16:55;;;;;;;13.52;3.78;;;;;;;;;;6283905;22;20025;-90
2022/10/25 17:19:21;;;;;;;11.15;4.93;;;;;;;;;;6284262;22;19999;-91
2022/10/25 17:21:47;;;;;;;15.57;5.60;;;;;;;;;;6283078;22;20015;-91
2022/10/25 17:24:16;;;;;;;12.73;5.38;;;;;;;;;;6283675;22;19999;-91
2022/10/25 17:26:42;;;;;;;7.18;3.60;;;;;;;;;;6283983;22;20019;-89
2022/10/25 17:29:08;;;;;;;8.90;3.38;;;;;;;;;;6284380;22;20015;-91
2022/10/25 17:31:35;;;;;;;6.20;2.72;;;;;;;;;;6284251;22;20542;-89
2022/10/25 17:34:01;;;;;;;5.78;2.13;;;;;;;;;;6288241;22;20439;-88
2022/10/25 17:36:30;;;;;;;9.95;2.60;;;;;;;;;;6288205;22;20463;-90
2022/10/25 17:38:56;;;;;;;5.60;2.38;;;;;;;;;;6283852;22;20007;-89
2022/10/25 17:41:22;;;;;;;5.95;2.15;;;;;;;;;;6282527;22;20446;-90
2022/10/25 17:43:48;;;;;;;5.13;2.38;;;;;;;;;;6283185;22;20029;-93
2022/10/25 17:46:20;;;;;;;4.68;2.13;;;;;;;;;;6283176;22;20003;-89
2022/10/25 17:48:46;;;;;;;4.65;1.80;;;;;;;;;;6282951;22;20007;-89
2022/10/25 17:51:16;;;;;;;3.53;1.90;;;;;;;;;;6283367;22;19999;-92
2022/10/25 17:53:52;;;;;;;8.57;1.60;;;;;;;;;;6283502;22;20071;-91
2022/10/25 17:56:19;;;;;;;5.13;1.60;;;;;;;;;;6283104;22;19999;-92
2022/10/25 17:58:46;;;;;;;7.43;1.80;;;;;;;;;;6283421;22;20057;-91
2022/10/25 18:01:13;;;;;;;7.22;2.42;;;;;;;;;;6282553;22;20053;-89
2022/10/25 18:03:39;;;;;;;4.93;2.20;;;;;;;;;;6282568;22;20011;-89
2022/10/25 18:06:10;;;;;;;6.90;2.47;;;;;;;;;;6309650;22;20050;-89
2022/10/25 18:08:37;;;;;;;3.50;1.83;;;;;;;;;;6283037;22;20057;-89
2022/10/25 18:11:09;;;;;;;9.20;2.50;;;;;;;;;;6282779;22;20025;-87
2022/10/25 18:13:37;;;;;;;7.88;3.78;;;;;;;;;;6282877;22;20013;-88
2022/10/25 18:16:05;;;;;;;11.73;4.40;;;;;;;;;;6282069;22;20003;-87
2022/10/25 18:18:34;;;;;;;12.02;4.68;;;;;;;;;;6283276;22;20014;-89
2022/10/25 18:21:10;;;;;;;16.42;4.72;;;;;;;;;;6282977;22;19999;-92
2022/10/25 18:23:40;;;;;;;13.88;5.35;;;;;;;;;;6283226;22;20011;-92
2022/10/25 18:26:07;;;;;;;12.45;6.10;;;;;;;;;;6282313;22;20336;-88
2022/10/25 18:28:33;;;;;;;13.38;6.03;;;;;;;;;;6310301;22;20057;-88
2022/10/25 18:31:00;;;;;;;15.65;7.28;;;;;;;;;;6282739;22;20003;-88
2022/10/25 18:33:30;;;;;;;21.13;7.82;;;;;;;;;;6282368;22;20007;-92
2022/10/25 18:35:57;;;;;;;15.77;6.03;;;;;;;;;;6282000;22;20062;-89
2022/10/25 18:38:23;;;;;;;15.48;6.65;;;;;;;;;;6282261;22;20078;-87
2022/10/25 18:40:53;;;;;;;16.00;6.95;;;;;;;;;;6308889;22;19995;-90
2022/10/25 18:43:19;;;;;;;16.27;6.22;;;;;;;;;;6282997;22;20090;-88
2022/10/25 18:45:53;;;;;;;20.92;6.75;;;;;;;;;;6281856;22;20039;-87
2022/10/25 18:48:19;;;;;;;;;;;;;;;;;;6282456;22;20021;-88
2022/10/25 18:50:45;;;;;;;20.98;8.07;;;;;;;;;;6309911;22;19922;-88
2022/10/25 18:53:43;;;;;;;31.27;11.95;;;;;;;;;;6282928;22;20011;-89
2022/10/25 18:56:10;;;;;;;21.60;9.77;;;;;;;;;;6287088;22;20004;-88
2022/10/25 18:58:37;;;;;;;24.17;12.43;;;;;;;;;;6282871;22;20007;-89
2022/10/25 19:01:19;;;;;;;23.10;10.20;;;;;;;;;;6282568;22;20022;-90
2022/10/25 19:04:01;;;;;;;20.52;9.00;;;;;;;;;;6283219;22;20497;-89
2022/10/25 19:06:28;;;;;;;23.25;9.80;;;;;;;;;;6257421;22;20031;-89
2022/10/25 19:08:54;;;;;;;26.88;11.35;;;;;;;;;;6284803;22;20004;-89
2022/10/25 19:11:21;;;;;;;21.90;10.63;;;;;;;;;;6283002;22;20048;-90
2022/10/25 19:13:48;;;;;;;26.77;12.10;;;;;;;;;;6283218;22;20007;-91
2022/10/25 19:16:15;;;;;;;23.85;11.77;;;;;;;;;;6283544;22;20007;-89
2022/10/25 19:18:44;;;;;;;23.83;11.60;;;;;;;;;;6287348;22;19999;-87
2022/10/25 19:21:15;;;;;;;24.48;12.00;;;;;;;;;;6290907;22;20035;-90
2022/10/25 19:23:45;;;;;;;29.73;13.15;;;;;;;;;;6282999;22;20007;-90
2022/10/25 19:26:23;;;;;;;36.63;15.23;;;;;;;;;;6282255;22;20027;-89
2022/10/25 19:28:59;;;;;;;23.17;11.95;;;;;;;;;;6282575;22;20034;-90
2022/10/25 19:31:26;;;;;;;26.52;13.68;;;;;;;;;;6282241;22;20489;-88
2022/10/25 19:33:52;;;;;;;28.95;14.68;;;;;;;;;;6282925;22;20003;-89
2022/10/25 19:36:19;;;;;;;34.95;14.02;;;;;;;;;;6282758;22;20052;-89
2022/10/25 19:39:03;;;;;;;27.05;13.20;;;;;;;;;;6281958;22;20003;-90
2022/10/25 19:41:29;;;;;;;26.58;13.38;;;;;;;;;;6282121;22;20420;-89
2022/10/25 19:43:57;;;;;;;19.15;10.45;;;;;;;;;;6281822;22;19999;-91
2022/10/25 19:46:23;;;;;;;30.55;11.38;;;;;;;;;;6281374;22;20447;-90
2022/10/25 19:48:49;;;;;;;23.27;11.30;;;;;;;;;;6281942;22;19999;-92
2022/10/25 19:51:17;;;;;;;22.27;11.40;;;;;;;;;;6281582;22;20003;-89
2022/10/25 19:53:45;;;;;;;24.88;12.23;;;;;;;;;;6282031;22;20054;-90
2022/10/25 19:56:15;;;;;;;37.42;14.40;;;;;;;;;;6282446;22;20007;-90
2022/10/25 19:58:42;;;;;;;27.30;13.07;;;;;;;;;;6282000;22;20360;-92
2022/10/25 20:01:12;;;;;;;31.92;13.65;;;;;;;;;;6281768;22;20467;-92
2022/10/25 20:03:39;;;;;;;31.40;14.05;;;;;;;;;;6281521;22;20007;-90
2022/10/25 20:06:09;;;;;;;25.88;12.68;;;;;;;;;;6282032;22;19999;-91
2022/10/25 20:08:36;;;;;;;35.15;14.95;;;;;;;;;;6281765;22;20340;-91
2022/10/25 20:11:02;;;;;;;38.63;16.05;;;;;;;;;;6281855;22;20000;-91
2022/10/25 20:13:28;;;;;;;30.27;15.25;;;;;;;;;;6281694;22;20485;-92
2022/10/25 20:15:54;;;;;;;32.83;14.35;;;;;;;;;;6281647;22;20015;-91
2022/10/25 20:18:27;;;;;;;33.88;14.88;;;;;;;;;;6281925;22;19999;-91
2022/10/25 20:20:59;;;;;;;30.15;14.07;;;;;;;;;;6281226;22;20007;-90
2022/10/25 20:23:25;;;;;;;29.23;12.25;;;;;;;;;;6281300;22;20378;-92
2022/10/25 20:25:51;;;;;;;20.10;8.48;;;;;;;;;;6281538;22;20003;-89
2022/10/25 20:28:17;;;;;;;20.75;8.27;;;;;;;;;;6307297;22;20019;-90
2022/10/25 20:30:46;;;;;;;6.82;2.97;;;;;;;;;;6281884;22;20409;-89
2022/10/25 20:33:19;;;;;;;8.82;3.80;;;;;;;;;;6281685;22;20031;-87
2022/10/25 20:35:45;;;;;;;;;;;;;;;;;;6282235;22;20003;-91
2022/10/25 20:38:12;;;;;;;4.55;2.35;;;;;;;;;;6281592;22;19899;-90
2022/10/25 20:40:38;;;;;;;7.18;2.72;;;;;;;;;;6281360;22;20006;-90
2022/10/25 20:43:04;;;;;;;11.15;3.15;;;;;;;;;;6281486;22;20022;-89
2022/10/25 20:45:34;;;;;;;8.32;2.70;;;;;;;;;;6281252;22;20004;-91
2022/10/25 20:48:00;;;;;;;3.67;1.70;;;;;;;;;;6282348;22;20007;-90
2022/10/25 20:50:29;;;;;;;6.88;2.15;;;;;;;;;;6281094;22;20030;-91
2022/10/25 20:52:55;;;;;;;4.68;1.92;;;;;;;;;;6282172;22;20003;-90
2022/10/25 20:55:21;;;;;;;7.80;2.95;;;;;;;;;;6281327;22;20057;-90
2022/10/25 20:57:48;;;;;;;6.50;2.80;;;;;;;;;;6282796;22;20074;-89
2022/10/25 21:00:20;;;;;;;5.22;2.55;;;;;;;;;;6283979;22;20014;-92
2022/10/25 21:02:46;;;;;;;16.58;5.97;;;;;;;;;;6282844;22;20023;-90
2022/10/25 21:05:12;;;;;;;15.98;5.95;;;;;;;;;;6283377;22;20053;-90
2022/10/25 21:07:38;;;;;;;13.82;5.13;;;;;;;;;;6283781;22;20007;-91
2022/10/25 21:10:04;;;;;;;17.02;6.40;;;;;;;;;;6283642;22;20082;-91
2022/10/25 21:12:30;;;;;;;8.30;4.25;;;;;;;;;;6283443;22;20003;-92
2022/10/25 21:14:56;;;;;;;12.05;5.07;;;;;;;;;;6283131;22;20003;-90
2022/10/25 21:17:22;;;;;;;13.77;5.25;;;;;;;;;;6283260;22;20011;-92
2022/10/25 21:19:49;;;;;;;10.05;4.57;;;;;;;;;;6284874;22;20000;-90
2022/10/25 21:22:15;;;;;;;13.20;4.35;;;;;;;;;;6284383;22;20011;-90
2022/10/25 21:24:41;;;;;;;15.15;5.47;;;;;;;;;;6293028;22;20336;-91
2022/10/25 21:27:08;;;;;;;15.55;5.75;;;;;;;;;;6282893;22;20023;-89
2022/10/25 21:29:35;;;;;;;13.98;5.43;;;;;;;;;;6281717;22;20313;-91
2022/10/25 21:32:01;;;;;;;13.35;5.78;;;;;;;;;;6282835;22;19999;-91
2022/10/25 21:34:27;;;;;;;11.60;5.15;;;;;;;;;;6283251;22;20105;-92
2022/10/25 21:36:53;;;;;;;14.75;6.35;;;;;;;;;;6282644;22;20006;-92
2022/10/25 21:39:22;;;;;;;19.88;5.35;;;;;;;;;;6282720;22;20007;-92
2022/10/25 21:41:49;;;;;;;10.13;5.15;;;;;;;;;;6282677;22;20454;-92
2022/10/25 21:44:15;;;;;;;13.38;7.15;;;;;;;;;;6282515;22;20003;-91
2022/10/25 21:46:41;;;;;;;15.73;7.65;;;;;;;;;;6282728;22;20007;-91
2022/10/25 21:49:07;;;;;;;16.50;7.93;;;;;;;;;;6283332;22;20412;-93
2022/10/25 21:51:33;;;;;;;15.70;7.28;;;;;;;;;;6282658;22;20003;-92
2022/10/25 21:54:00;;;;;;;16.95;7.53;;;;;;;;;;6282673;22;20007;-91
2022/10/25 21:56:28;;;;;;;12.65;5.80;;;;;;;;;;6282822;22;20027;-91
2022/10/25 21:58:54;;;;;;;12.80;5.70;;;;;;;;;;6282815;22;20007;-92
2022/10/25 22:01:22;;;;;;;12.48;6.05;;;;;;;;;;6283347;22;20422;-91
2022/10/25 22:03:48;;;;;;;13.60;5.65;;;;;;;;;;6282659;22;20064;-93
2022/10/25 22:06:16;;;;;;;11.60;5.30;;;;;;;;;;6283118;22;20081;-91
2022/10/25 22:08:43;;;;;;;12.52;5.82;;;;;;;;;;6282133;22;20030;-91
2022/10/25 22:11:14;;;;;;;11.68;6.03;;;;;;;;;;6283149;22;20003;-93
2022/10/25 22:13:40;;;;;;;10.93;5.50;;;;;;;;;;6282367;22;20011;-91
2022/10/25 22:16:08;;;;;;;8.55;4.82;;;;;;;;;;6282587;22;20444;-89
2022/10/25 22:18:34;;;;;;;10.93;5.25;;;;;;;;;;6282940;22;20011;-90
2022/10/25 22:21:02;;;;;;;9.82;4.82;;;;;;;;;;6282695;22;20083;-91
2022/10/25 22:23:29;;;;;;;15.57;4.85;;;;;;;;;;6282654;22;20110;-92
2022/10/25 22:25:59;;;;;;;11.25;5.35;;;;;;;;;;6282530;22;20052;-93
2022/10/25 22:28:25;;;;;;;10.90;4.53;;;;;;;;;;6283015;22;20105;-91
2022/10/25 22:31:20;;;;;;;6.85;3.90;;;;;;;;;;6282134;22;20420;-90
2022/10/25 22:33:46;;;;;;;9.68;4.63;;;;;;;;;;6250946;22;20086;-92
2022/10/25 22:36:17;;;;;;;8.70;4.78;;;;;;;;;;6282785;22;20090;-92
2022/10/25 22:38:43;;;;;;;12.52;4.65;;;;;;;;;;6282373;22;19999;-92
2022/10/25 22:41:11;;;;;;;10.05;4.10;;;;;;;;;;6282706;22;20003;-92
2022/10/25 22:43:38;;;;;;;6.68;3.22;;;;;;;;;;6282459;22;20007;-92
2022/10/25 22:46:05;;;;;;;4.82;3.05;;;;;;;;;;6282859;22;19999;-90
2022/10/25 22:48:32;;;;;;;6.53;2.55;;;;;;;;;;6282735;22;20011;-92
2022/10/25 22:51:02;;;;;;;7.70;3.15;;;;;;;;;;6283103;22;20057;-92
2022/10/25 22:53:28;;;;;;;7.40;2.65;;;;;;;;;;6282177;22;19999;-92
2022/10/25 22:55:57;;;;;;;5.75;2.60;;;;;;;;;;6285023;22;20030;-92
2022/10/25 22:58:24;;;;;;;7.63;2.50;;;;;;;;;;6282943;22;20006;-91
2022/10/25 23:00:50;;;;;;;8.98;2.17;;;;;;;;;;6283164;22;20059;-91
2022/10/25 23:03:16;;;;;;;5.70;2.13;;;;;;;;;;6282932;22;20015;-92
2022/10/25 23:05:42;;;;;;;4.50;2.38;;;;;;;;;;6283503;22;19999;-92
2022/10/25 23:08:09;;;;;;;4.78;1.98;;;;;;;;;;6288113;22;20007;-90
2022/10/25 23:10:35;;;;;;;9.80;1.98;;;;;;;;;;6284158;22;20000;-92
2022/10/25 23:13:02;;;;;;;3.40;1.55;;;;;;;;;;6281930;22;20003;-92
2022/10/25 23:15:28;;;;;;;4.03;1.55;;;;;;;;;;6282137;22;20487;-92
2022/10/25 23:17:54;;;;;;;4.70;2.00;;;;;;;;;;6281816;22;20003;-92
2022/10/25 23:20:20;;;;;;;5.40;1.85;;;;;;;;;;6281562;22;19999;-92
2022/10/25 23:22:46;;;;;;;3.97;1.60;;;;;;;;;;6281984;22;20015;-92
2022/10/25 23:25:18;;;;;;;7.10;2.13;;;;;;;;;;6281786;22;20098;-92
2022/10/25 23:27:44;;;;;;;5.38;2.30;;;;;;;;;;6282131;22;20047;-92
2022/10/25 23:30:11;;;;;;;3.80;1.90;;;;;;;;;;6281617;22;19999;-92
2022/10/25 23:32:37;;;;;;;4.60;2.00;;;;;;;;;;6281390;22;20007;-92